Time,TemperatureF,DewpointF,PressureIn,WindDirection,WindDirectionDegrees,WindSpeedMPH,WindSpeedGustMPH,Humidity,HourlyPrecipIn,Conditions,Clouds,dailyrainin,SoftwareType,DateUTC
2013-07-29 13:23:00,89.4,-23.5,29.71,SW,225,3.0,3.0,1,0.00,,,0.00,Weather View 32 v70,2013-07-29 17:23:00,
2013-07-29 13:24:00,89.4,-23.5,29.71,WSW,247,2.0,4.0,1,0.00,,,0.00,Weather View 32 v70,2013-07-29 17:24:00,
2013-07-29 13:29:00,87.7,-24.5,29.71,SE,135,3.0,7.0,1,0.00,,,0.00,Weather View 32 v70,2013-07-29 17:29:00,
2013-07-29 13:34:00,87.2,-24.8,29.71,SSW,202,4.0,7.0,1,0.00,,,0.00,Weather View 32 v70,2013-07-29 17:34:00,
2013-07-29 13:39:00,86.0,-25.5,29.71,SSW,202,17.0,17.0,1,0.00,,,0.00,Weather View 32 v70,2013-07-29 17:39:00,
2013-07-29 13:44:00,83.2,-27.2,29.71,SW,225,9.0,24.0,1,0.00,,,0.00,Weather View 32 v70,2013-07-29 17:44:00,
2013-07-29 13:49:00,80.5,-28.8,29.72,South,180,9.0,24.0,1,0.00,,,0.00,Weather View 32 v70,2013-07-29 17:49:00,
2013-07-29 13:54:00,74.8,-32.2,29.73,SE,135,20.0,28.0,1,0.04,,,0.04,Weather View 32 v70,2013-07-29 17:54:00,
2013-07-29 13:59:00,73.4,-33.0,29.73,South,180,6.0,28.0,1,0.04,,,0.04,Weather View 32 v70,2013-07-29 17:59:00,
2013-07-29 14:04:00,74.5,-32.4,29.73,West,270,9.0,28.0,1,0.04,,,0.04,Weather View 32 v70,2013-07-29 18:04:00,
2013-07-29 14:09:00,73.9,-32.7,29.73,SSW,202,11.0,28.0,1,0.07,,,0.09,Weather View 32 v70,2013-07-29 18:09:00,
2013-07-29 14:15:00,72.6,-33.5,29.73,East,90,6.0,28.0,1,0.20,,,0.21,Weather View 32 v70,2013-07-29 18:15:00,
2013-07-29 14:20:00,72.1,-33.8,29.72,East,90,2.0,28.0,1,99.99,,,99.99,Weather View 32 v70,2013-07-29 18:20:00,
2013-07-29 14:25:00,72.1,-33.8,29.73,East,90,2.0,28.0,1,99.99,,,99.99,Weather View 32 v70,2013-07-29 18:25:00,
2013-07-29 14:30:00,72.1,-33.8,29.73,NNE,22,2.0,28.0,1,99.99,,,99.99,Weather View 32 v70,2013-07-29 18:30:00,
2013-07-29 14:36:00,72.3,-33.7,29.73,East,90,4.0,28.0,1,99.99,,,99.99,Weather View 32 v70,2013-07-29 18:36:00,
2013-07-29 14:41:00,72.4,-33.6,29.72,ENE,67,4.0,28.0,1,99.99,,,99.99,Weather View 32 v70,2013-07-29 18:41:00,
2013-07-29 14:46:00,72.3,-33.7,29.71,East,90,2.0,28.0,1,99.99,,,99.99,Weather View 32 v70,2013-07-29 18:46:00,
2013-07-29 14:51:00,72.5,-33.6,29.70,NE,45,2.0,28.0,1,99.99,,,99.99,Weather View 32 v70,2013-07-29 18:51:00,
2013-07-29 14:56:00,72.7,-33.4,29.70,East,90,2.0,24.0,1,99.99,,,99.99,Weather View 32 v70,2013-07-29 18:56:00,
2013-07-29 15:01:00,72.8,-33.4,29.72,ESE,112,1.0,19.0,1,99.99,,,99.99,Weather View 32 v70,2013-07-29 19:01:00,
2013-07-29 15:06:00,72.9,-33.3,29.71,SSE,157,4.0,19.0,1,99.99,,,99.99,Weather View 32 v70,2013-07-29 19:06:00,
2013-07-29 15:12:00,72.8,-33.4,29.73,South,180,4.0,12.0,1,99.99,,,99.99,Weather View 32 v70,2013-07-29 19:12:00,
2013-07-29 15:17:00,72.6,-33.5,29.72,SE,135,1.0,11.0,1,99.99,,,99.99,Weather View 32 v70,2013-07-29 19:17:00,
2013-07-29 15:22:00,72.8,-33.4,29.72,SE,135,2.0,11.0,1,0.00,,,99.99,Weather View 32 v70,2013-07-29 19:22:00,
2013-07-29 15:27:00,72.9,-33.3,29.72,ESE,112,2.0,11.0,1,0.00,,,99.99,Weather View 32 v70,2013-07-29 19:27:00,
2013-07-29 15:32:00,72.6,-33.5,29.72,ESE,112,2.0,11.0,1,0.00,,,99.99,Weather View 32 v70,2013-07-29 19:32:00,
2013-07-29 15:37:00,72.6,-33.5,29.71,SE,135,2.0,11.0,1,0.00,,,99.99,Weather View 32 v70,2013-07-29 19:37:00,
2013-07-29 15:42:00,72.7,-33.4,29.72,SSE,157,2.0,11.0,1,0.00,,,99.99,Weather View 32 v70,2013-07-29 19:42:00,
2013-07-29 15:47:00,72.7,-33.4,29.73,SE,135,1.0,11.0,1,0.00,,,99.99,Weather View 32 v70,2013-07-29 19:47:00,
2013-07-29 15:52:00,72.7,-33.4,29.73,North,360,2.0,11.0,1,0.00,,,99.99,Weather View 32 v70,2013-07-29 19:52:00,
2013-07-29 15:57:00,72.9,-33.3,29.73,NW,315,4.0,11.0,1,0.00,,,99.99,Weather View 32 v70,2013-07-29 19:57:00,
2013-07-29 16:03:00,73.1,-33.2,29.75,WNW,292,10.0,12.0,1,0.00,,,99.99,Weather View 32 v70,2013-07-29 20:03:00,
2013-07-29 16:08:00,73.1,-33.2,29.75,NW,315,4.0,13.0,1,0.00,,,99.99,Weather View 32 v70,2013-07-29 20:08:00,
2013-07-29 16:13:00,73.1,-33.2,29.74,North,360,2.0,13.0,1,0.00,,,99.99,Weather View 32 v70,2013-07-29 20:13:00,
2013-07-29 16:18:00,72.8,-33.4,29.74,ENE,67,2.0,13.0,1,0.00,,,99.99,Weather View 32 v70,2013-07-29 20:18:00,
2013-07-29 16:23:00,72.8,-33.4,29.73,East,90,9.0,13.0,1,0.00,,,99.99,Weather View 32 v70,2013-07-29 20:23:00,
2013-07-29 16:28:00,72.7,-33.4,29.73,ESE,112,4.0,13.0,1,0.00,,,99.99,Weather View 32 v70,2013-07-29 20:28:00,
2013-07-29 16:34:00,72.6,-33.5,29.73,SE,135,6.0,13.0,1,0.00,,,99.99,Weather View 32 v70,2013-07-29 20:34:00,
2013-07-29 16:39:00,72.5,-33.6,29.73,East,90,6.0,13.0,1,0.00,,,99.99,Weather View 32 v70,2013-07-29 20:39:00,
2013-07-29 16:44:00,72.6,-33.5,29.73,East,90,2.0,13.0,1,0.00,,,99.99,Weather View 32 v70,2013-07-29 20:44:00,
2013-07-29 16:49:00,72.7,-33.4,29.72,ENE,67,2.0,13.0,1,0.00,,,99.99,Weather View 32 v70,2013-07-29 20:49:00,
2013-07-29 16:54:00,72.8,-33.4,29.72,NE,45,2.0,13.0,1,0.00,,,99.99,Weather View 32 v70,2013-07-29 20:54:00,
2013-07-29 16:59:00,72.8,-33.4,29.72,NE,45,4.0,13.0,1,-99.99,,,0.00,Weather View 32 v70,2013-07-29 20:59:00,
2013-07-29 17:04:00,72.9,-33.3,29.72,ENE,67,2.0,12.0,1,-99.99,,,0.00,Weather View 32 v70,2013-07-29 21:04:00,
2013-07-29 17:09:00,73.2,-33.1,29.72,ENE,67,3.0,9.0,1,-99.99,,,0.00,Weather View 32 v70,2013-07-29 21:09:00,
2013-07-29 17:15:00,73.3,-33.1,29.72,East,90,4.0,9.0,1,-99.99,,,0.00,Weather View 32 v70,2013-07-29 21:15:00,
2013-07-29 17:20:00,73.5,-33.0,29.71,East,90,2.0,9.0,1,-99.99,,,0.00,Weather View 32 v70,2013-07-29 21:20:00,
2013-07-29 17:25:00,73.6,-32.9,29.72,East,90,2.0,9.0,1,-99.99,,,0.00,Weather View 32 v70,2013-07-29 21:25:00,
2013-07-29 17:30:00,73.8,-32.8,29.72,East,90,1.0,7.0,1,-99.99,,,0.00,Weather View 32 v70,2013-07-29 21:30:00,
2013-07-29 17:35:00,74.5,-32.4,29.71,East,90,2.0,7.0,1,-99.99,,,0.00,Weather View 32 v70,2013-07-29 21:35:00,
2013-07-29 17:40:00,74.8,-32.2,29.71,NE,45,3.0,7.0,1,-99.99,,,0.00,Weather View 32 v70,2013-07-29 21:40:00,
2013-07-29 17:45:00,74.9,-32.1,29.71,ENE,67,2.0,6.0,1,-99.99,,,0.00,Weather View 32 v70,2013-07-29 21:45:00,
2013-07-29 17:50:00,75.2,-31.9,29.71,NNE,22,2.0,6.0,1,-99.99,,,0.00,Weather View 32 v70,2013-07-29 21:50:00,
2013-07-29 17:55:00,75.8,-31.6,29.70,East,90,0.0,6.0,1,-99.99,,,0.00,Weather View 32 v70,2013-07-29 21:55:00,
2013-07-29 18:00:00,76.5,-31.2,29.69,NE,45,2.0,6.0,1,0.00,,,0.00,Weather View 32 v70,2013-07-29 22:00:00,
2013-07-29 18:05:00,77.2,-30.7,29.69,NE,45,0.0,6.0,1,0.00,,,0.00,Weather View 32 v70,2013-07-29 22:05:00,
2013-07-29 18:10:00,77.9,-30.3,29.69,NE,45,0.0,6.0,1,0.00,,,0.00,Weather View 32 v70,2013-07-29 22:10:00,
2013-07-29 18:15:00,78.6,-29.9,29.69,South,180,2.0,6.0,1,0.00,,,0.00,Weather View 32 v70,2013-07-29 22:15:00,
2013-07-29 18:21:00,77.2,-30.7,29.69,SSE,157,2.0,4.0,1,0.00,,,0.00,Weather View 32 v70,2013-07-29 22:21:00,
2013-07-29 18:26:00,78.6,-29.9,29.69,SSE,157,3.0,4.0,1,0.00,,,0.00,Weather View 32 v70,2013-07-29 22:26:00,
2013-07-29 18:31:00,78.6,-29.9,29.69,SSW,202,2.0,4.0,1,0.00,,,0.00,Weather View 32 v70,2013-07-29 22:31:00,
2013-07-29 18:36:00,79.1,-29.6,29.69,SW,225,3.0,4.0,1,0.00,,,0.00,Weather View 32 v70,2013-07-29 22:36:00,
2013-07-29 18:41:00,79.1,-29.6,29.69,South,180,2.0,4.0,1,0.00,,,0.00,Weather View 32 v70,2013-07-29 22:41:00,
2013-07-29 18:46:00,79.1,-29.6,29.71,South,180,3.0,4.0,1,0.00,,,0.00,Weather View 32 v70,2013-07-29 22:46:00,
2013-07-29 18:52:00,78.6,-29.9,29.71,South,180,2.0,4.0,1,0.00,,,0.00,Weather View 32 v70,2013-07-29 22:52:00,
2013-07-29 18:57:00,78.2,-30.1,29.72,South,180,2.0,4.0,1,0.00,,,0.00,Weather View 32 v70,2013-07-29 22:57:00,
2013-07-29 19:02:00,77.9,-30.3,29.73,South,180,2.0,4.0,1,0.00,,,0.00,Weather View 32 v70,2013-07-29 23:02:00,
2013-07-29 19:07:00,77.7,-30.4,29.73,South,180,4.0,4.0,1,0.00,,,0.00,Weather View 32 v70,2013-07-29 23:07:00,
2013-07-29 19:12:00,77.3,-30.7,29.73,South,180,4.0,6.0,1,0.00,,,0.00,Weather View 32 v70,2013-07-29 23:12:00,
2013-07-29 19:17:00,76.9,-30.9,29.73,SSE,157,4.0,6.0,1,0.00,,,0.00,Weather View 32 v70,2013-07-29 23:17:00,
2013-07-29 19:22:00,76.8,-31.0,29.73,SE,135,2.0,6.0,1,0.00,,,0.00,Weather View 32 v70,2013-07-29 23:22:00,
2013-07-29 19:27:00,76.7,-31.0,29.73,SE,135,2.0,6.0,1,0.00,,,0.00,Weather View 32 v70,2013-07-29 23:27:00,
2013-07-29 19:32:00,76.5,-31.2,29.73,SE,135,4.0,6.0,1,0.00,,,0.00,Weather View 32 v70,2013-07-29 23:32:00,
2013-07-29 19:38:00,76.5,-31.2,29.74,SE,135,6.0,8.0,1,0.00,,,0.00,Weather View 32 v70,2013-07-29 23:38:00,
2013-07-29 19:43:00,76.4,-31.2,29.74,SSE,157,8.0,8.0,1,0.00,,,0.00,Weather View 32 v70,2013-07-29 23:43:00,
2013-07-29 19:48:00,76.2,-31.3,29.74,SE,135,9.0,9.0,1,0.00,,,0.00,Weather View 32 v70,2013-07-29 23:48:00,
2013-07-29 19:53:00,75.8,-31.6,29.75,SE,135,7.0,12.0,1,0.00,,,0.00,Weather View 32 v70,2013-07-29 23:53:00,
2013-07-29 19:58:00,75.6,-31.7,29.74,SE,135,4.0,12.0,1,0.00,,,0.00,Weather View 32 v70,2013-07-29 23:58:00,
2013-07-29 20:03:00,75.2,-31.9,29.75,SE,135,5.0,12.0,1,0.00,,,0.00,Weather View 32 v70,2013-07-30 00:03:00,
2013-07-29 20:08:00,74.9,-32.1,29.74,SSE,157,3.0,12.0,1,0.00,,,0.00,Weather View 32 v70,2013-07-30 00:08:00,
2013-07-29 20:13:00,74.7,-32.2,29.74,South,180,4.0,12.0,1,0.00,,,0.00,Weather View 32 v70,2013-07-30 00:13:00,
2013-07-29 20:18:00,74.4,-32.4,29.74,South,180,1.0,12.0,1,0.00,,,0.00,Weather View 32 v70,2013-07-30 00:18:00,
2013-07-29 20:23:00,74.3,-32.5,29.75,SSE,157,4.0,12.0,1,0.00,,,0.00,Weather View 32 v70,2013-07-30 00:23:00,
2013-07-29 20:28:00,73.9,-32.7,29.75,SSE,157,3.0,12.0,1,0.00,,,0.00,Weather View 32 v70,2013-07-30 00:28:00,
2013-07-29 20:33:00,73.9,-32.7,29.75,SE,135,4.0,12.0,1,0.00,,,0.00,Weather View 32 v70,2013-07-30 00:33:00,
2013-07-29 20:39:00,73.7,-32.8,29.75,SE,135,2.0,12.0,1,0.00,,,0.00,Weather View 32 v70,2013-07-30 00:39:00,
2013-07-29 20:44:00,73.6,-32.9,29.75,SE,135,2.0,12.0,1,0.00,,,0.00,Weather View 32 v70,2013-07-30 00:44:00,
2013-07-29 20:49:00,73.4,-33.0,29.75,SE,135,2.0,12.0,1,0.00,,,0.00,Weather View 32 v70,2013-07-30 00:49:00,
2013-07-29 20:54:00,73.4,-33.0,29.75,SE,135,2.0,11.0,1,0.00,,,0.00,Weather View 32 v70,2013-07-30 00:54:00,
2013-07-29 20:59:00,73.4,-33.0,29.75,SE,135,2.0,9.0,1,0.00,,,0.00,Weather View 32 v70,2013-07-30 00:59:00,
2013-07-29 21:04:00,73.2,-33.1,29.75,ESE,112,3.0,7.0,1,0.00,,,0.00,Weather View 32 v70,2013-07-30 01:04:00,
2013-07-29 21:09:00,73.1,-33.2,29.76,ESE,112,2.0,6.0,1,0.00,,,0.00,Weather View 32 v70,2013-07-30 01:09:00,
2013-07-29 21:14:00,72.9,-33.3,29.76,ESE,112,2.0,5.0,1,0.00,,,0.00,Weather View 32 v70,2013-07-30 01:14:00,
2013-07-29 21:19:00,72.9,-33.3,29.76,SE,135,2.0,5.0,1,0.00,,,0.00,Weather View 32 v70,2013-07-30 01:19:00,
2013-07-29 21:25:00,72.8,-33.4,29.77,SE,135,0.0,4.0,1,0.00,,,0.00,Weather View 32 v70,2013-07-30 01:25:00,
2013-07-29 21:30:00,72.8,-33.4,29.77,SSE,157,2.0,4.0,1,0.00,,,0.00,Weather View 32 v70,2013-07-30 01:30:00,
2013-07-29 21:35:00,72.6,-33.5,29.77,SE,135,3.0,4.0,1,0.00,,,0.00,Weather View 32 v70,2013-07-30 01:35:00,
2013-07-29 21:40:00,72.7,-33.4,29.77,SE,135,2.0,4.0,1,0.00,,,0.00,Weather View 32 v70,2013-07-30 01:40:00,
2013-07-29 21:45:00,72.7,-33.4,29.77,SSE,157,1.0,5.0,1,0.00,,,0.00,Weather View 32 v70,2013-07-30 01:45:00,
2013-07-29 21:50:00,72.7,-33.4,29.77,SSE,157,2.0,5.0,1,0.00,,,0.00,Weather View 32 v70,2013-07-30 01:50:00,
2013-07-29 21:55:00,72.6,-33.5,29.77,South,180,2.0,5.0,1,0.00,,,0.00,Weather View 32 v70,2013-07-30 01:55:00,
2013-07-29 22:00:00,72.5,-33.6,29.77,SSE,157,2.0,5.0,1,0.00,,,0.00,Weather View 32 v70,2013-07-30 02:00:00,
2013-07-29 22:05:00,72.5,-33.6,29.77,SSE,157,2.0,5.0,1,0.00,,,0.00,Weather View 32 v70,2013-07-30 02:05:00,
2013-07-29 22:11:00,72.5,-33.6,29.77,SE,135,3.0,5.0,1,0.00,,,0.00,Weather View 32 v70,2013-07-30 02:11:00,
2013-07-29 22:16:00,72.5,-33.6,29.77,SE,135,2.0,5.0,1,0.00,,,0.00,Weather View 32 v70,2013-07-30 02:16:00,
2013-07-29 22:21:00,72.3,-33.7,29.77,SE,135,0.0,5.0,1,0.00,,,0.00,Weather View 32 v70,2013-07-30 02:21:00,
2013-07-29 22:26:00,72.4,-33.6,29.77,SSW,202,2.0,5.0,1,0.00,,,0.00,Weather View 32 v70,2013-07-30 02:26:00,
2013-07-29 22:31:00,72.4,-33.6,29.77,SW,225,1.0,5.0,1,0.00,,,0.00,Weather View 32 v70,2013-07-30 02:31:00,
2013-07-29 22:36:00,72.5,-33.6,29.77,SSW,202,2.0,5.0,1,0.00,,,0.00,Weather View 32 v70,2013-07-30 02:36:00,
2013-07-29 22:41:00,72.6,-33.5,29.77,SSW,202,0.0,5.0,1,0.00,,,0.00,Weather View 32 v70,2013-07-30 02:41:00,
2013-07-29 22:47:00,72.6,-33.5,29.77,SSW,202,2.0,3.0,1,0.00,,,0.00,Weather View 32 v70,2013-07-30 02:47:00,
2013-07-29 22:52:00,72.5,-33.6,29.77,SSW,202,2.0,3.0,1,0.00,,,0.00,Weather View 32 v70,2013-07-30 02:52:00,
2013-07-29 22:57:00,72.5,-33.6,29.78,South,180,0.0,3.0,1,0.00,,,0.00,Weather View 32 v70,2013-07-30 02:57:00,
2013-07-29 23:02:00,72.5,-33.6,29.78,South,180,1.0,3.0,1,0.00,,,0.00,Weather View 32 v70,2013-07-30 03:02:00,
2013-07-29 23:07:00,72.5,-33.6,29.78,SSE,157,2.0,3.0,1,0.00,,,0.00,Weather View 32 v70,2013-07-30 03:07:00,
2013-07-29 23:12:00,72.3,-33.7,29.77,South,180,2.0,3.0,1,0.00,,,0.00,Weather View 32 v70,2013-07-30 03:12:00,
2013-07-29 23:17:00,72.3,-33.7,29.77,South,180,1.0,2.0,1,0.00,,,0.00,Weather View 32 v70,2013-07-30 03:17:00,
2013-07-29 23:22:00,72.3,-33.7,29.77,SSE,157,2.0,4.0,1,0.00,,,0.00,Weather View 32 v70,2013-07-30 03:22:00,
2013-07-29 23:27:00,72.2,-33.7,29.78,SSE,157,1.0,4.0,1,0.00,,,0.00,Weather View 32 v70,2013-07-30 03:27:00,
2013-07-29 23:32:00,72.2,-33.7,29.77,South,180,3.0,4.0,1,0.00,,,0.00,Weather View 32 v70,2013-07-30 03:32:00,
2013-07-29 23:37:00,72.2,-33.7,29.77,SSW,202,2.0,4.0,1,0.00,,,0.00,Weather View 32 v70,2013-07-30 03:37:00,
2013-07-29 23:45:00,72.2,-33.7,29.77,SW,225,1.0,4.0,1,0.00,,,0.00,Weather View 32 v70,2013-07-30 03:45:00,
2013-07-29 23:50:00,72.3,-33.7,29.77,SW,225,3.0,4.0,1,0.00,,,0.00,Weather View 32 v70,2013-07-30 03:50:00,
2013-07-29 23:56:00,72.3,-33.7,29.77,SW,225,2.0,4.0,1,0.00,,,0.00,Weather View 32 v70,2013-07-30 03:56:00,